Time;durP1;ratioP1;P1;durP2;ratioP2;P2;SDS_P1;SDS_P2;PMS_P1;PMS_P2;Temp;Humidity;BMP_temperature;BMP_pressure;BME280_temperature;BME280_humidity;BME280_pressure;Samples;Min_cycle;Max_cycle;Signal;HPM_P1;HPM_P2
2021/11/25 04:36:44;;;;;;;22.63;13.90;;;;;;;7.36;54.59;98203.44;6782474;29;20192;-77
2021/11/25 04:40:06;;;;;;;23.93;15.13;;;;;;;7.34;55.57;98211.66;6783824;29;20215;-78
2021/11/25 04:43:29;;;;;;;25.20;15.50;;;;;;;7.51;54.82;98190.69;6804984;29;20232;-78
2021/11/25 04:46:50;;;;;;;24.77;16.10;;;;;;;7.63;54.56;98200.66;6791193;29;20218;-78
2021/11/25 04:50:13;;;;;;;21.47;13.60;;;;;;;7.88;53.11;98168.72;6782941;29;20248;-78
2021/11/25 04:53:35;;;;;;;23.20;14.87;;;;;;;7.85;53.41;98182.56;6783128;29;20241;-78
2021/11/25 04:56:56;;;;;;;20.93;13.93;;;;;;;7.60;53.61;98162.69;6781810;29;20211;-78
2021/11/25 05:00:19;;;;;;;19.73;13.30;;;;;;;7.52;53.66;98139.53;6782458;29;20218;-78
2021/11/25 05:03:40;;;;;;;23.00;14.53;;;;;;;7.79;53.83;98194.91;6781800;29;20211;-77
2021/11/25 05:07:03;;;;;;;20.87;13.27;;;;;;;7.85;53.69;98194.09;6781405;29;20211;-78
2021/11/25 05:10:25;;;;;;;24.30;15.23;;;;;;;7.67;53.63;98152.78;6782142;29;20226;-77
2021/11/25 05:13:47;;;;;;;28.50;16.57;;;;;;;7.67;54.07;98198.38;6782370;29;20242;-77
2021/11/25 05:17:09;;;;;;;25.30;16.27;;;;;;;7.71;54.42;98191.59;6781531;29;20249;-78
2021/11/25 05:20:31;;;;;;;25.10;16.17;;;;;;;7.76;53.37;98186.44;6781725;29;20212;-78
2021/11/25 05:23:54;;;;;;;23.30;16.17;;;;;;;7.57;54.06;98196.09;6781429;29;20217;-78
2021/11/25 05:27:15;;;;;;;22.63;15.20;;;;;;;7.87;54.04;98178.63;6781207;29;20319;-78
2021/11/25 05:30:37;;;;;;;24.20;15.97;;;;;;;7.46;54.40;98177.88;6781131;29;20243;-78
2021/11/25 05:33:59;;;;;;;23.63;14.43;;;;;;;7.62;54.66;98177.53;6780856;29;20232;-78
2021/11/25 05:37:20;;;;;;;25.33;15.83;;;;;;;7.35;55.54;98189.19;6755796;29;20232;-78
2021/11/25 05:40:45;;;;;;;25.17;15.27;;;;;;;7.39;55.68;98192.28;6755468;29;20366;-78
2021/11/25 05:44:07;;;;;;;27.00;16.67;;;;;;;7.70;54.42;98166.63;6755200;29;20317;-78
2021/11/25 05:47:31;;;;;;;31.43;18.47;;;;;;;7.91;54.19;98201.34;6755707;29;20227;-78
2021/11/25 05:50:53;;;;;;;27.93;16.77;;;;;;;7.90;53.69;98191.63;6755282;29;20227;-78
2021/11/25 05:54:14;;;;;;;30.27;18.90;;;;;;;7.87;53.12;98181.31;6756784;29;20211;-77
2021/11/25 05:57:38;;;;;;;30.23;19.73;;;;;;;7.95;52.90;98183.81;6763790;29;20208;-77
2021/11/25 06:00:59;;;;;;;27.37;17.70;;;;;;;7.70;52.33;98163.09;6778165;29;20255;-78
2021/11/25 06:04:21;;;;;;;30.03;18.23;;;;;;;7.39;53.25;98197.66;6789771;29;20701;-77
2021/11/25 06:07:45;;;;;;;30.13;18.00;;;;;;;7.05;54.25;98162.84;6780896;29;20266;-77
2021/11/25 06:11:06;;;;;;;30.20;17.87;;;;;;;7.07;54.94;98201.81;6781328;29;20230;-77
2021/11/25 06:14:29;;;;;;;29.47;18.23;;;;;;;6.90;55.41;98197.00;6786208;29;20207;-77
2021/11/25 06:17:51;;;;;;;31.70;19.57;;;;;;;7.06;55.19;98193.97;6795062;29;20220;-77
2021/11/25 06:21:13;;;;;;;32.57;18.80;;;;;;;6.85;54.73;98184.16;6784322;29;20226;-77
2021/11/25 06:24:35;;;;;;;32.37;19.57;;;;;;;6.97;55.23;98205.88;6781320;29;20209;-77
2021/11/25 06:27:56;;;;;;;29.57;18.80;;;;;;;7.25;53.82;98193.28;6780922;29;20238;-77
2021/11/25 06:31:19;;;;;;;31.77;19.60;;;;;;;6.64;55.00;98204.81;6781637;29;20236;-77
2021/11/25 06:34:41;;;;;;;33.00;19.77;;;;;;;7.13;54.22;98202.91;6783299;29;20238;-77
2021/11/25 06:38:03;;;;;;;29.43;19.10;;;;;;;6.44;55.09;98169.06;6785151;29;20231;-77
2021/11/25 06:41:24;;;;;;;28.70;17.80;;;;;;;6.71;55.46;98208.41;6786858;29;20232;-77
2021/11/25 06:44:46;;;;;;;30.40;18.53;;;;;;;7.19;54.40;98202.91;6784594;29;20360;-77
2021/11/25 06:48:09;;;;;;;30.13;18.00;;;;;;;7.43;53.67;98194.38;6786031;29;20250;-77
2021/11/25 06:51:31;;;;;;;29.23;18.23;;;;;;;6.96;54.63;98202.38;6786209;29;20585;-77
2021/11/25 06:54:52;;;;;;;32.47;20.13;;;;;;;7.33;53.56;98199.28;6785641;29;20243;-77
2021/11/25 06:58:14;;;;;;;30.13;18.97;;;;;;;7.23;54.22;98212.22;6786014;29;20294;-77
2021/11/25 07:01:36;;;;;;;33.40;19.07;;;;;;;6.73;54.80;98214.38;6785725;29;20234;-77
2021/11/25 07:04:59;;;;;;;30.80;18.57;;;;;;;7.39;54.01;98211.06;6785381;29;20253;-77
2021/11/25 07:08:21;;;;;;;29.50;18.57;;;;;;;6.70;55.59;98212.94;6785089;29;20230;-77
2021/11/25 07:11:42;;;;;;;30.33;18.93;;;;;;;6.53;55.70;98216.91;6785111;29;20281;-77
2021/11/25 07:15:05;;;;;;;32.07;18.73;;;;;;;6.39;55.92;98219.66;6784617;29;20210;-77
2021/11/25 07:18:26;;;;;;;29.00;18.50;;;;;;;6.10;56.85;98196.56;6784796;29;20211;-78
2021/11/25 07:21:49;;;;;;;31.47;18.60;;;;;;;6.99;55.30;98211.88;6785004;29;20227;-77
2021/11/25 07:25:13;;;;;;;30.50;18.73;;;;;;;7.37;53.85;98199.72;6784272;29;20211;-78
2021/11/25 07:28:34;;;;;;;32.07;19.57;;;;;;;7.42;54.42;98206.13;6784935;29;20278;-77
2021/11/25 07:31:56;;;;;;;28.50;18.77;;;;;;;7.69;53.52;98215.09;6785293;29;20239;-77
2021/11/25 07:35:19;;;;;;;27.30;17.33;;;;;;;7.19;54.04;98229.72;6783911;29;20211;-77
2021/11/25 07:38:42;;;;;;;29.60;18.27;;;;;;;7.81;53.13;98235.81;6783661;29;20270;-77
2021/11/25 07:42:04;;;;;;;30.43;17.63;;;;;;;7.58;52.78;98240.66;6784709;29;20700;-78
2021/11/25 07:45:27;;;;;;;27.80;17.57;;;;;;;7.64;53.35;98247.91;6786218;29;20723;-81
2021/11/25 07:48:48;;;;;;;29.90;18.60;;;;;;;7.79;53.41;98226.28;6790389;29;20225;-79
2021/11/25 07:52:10;;;;;;;31.90;18.90;;;;;;;7.50;53.31;98224.75;6786222;29;20227;-84
2021/11/25 07:55:33;;;;;;;28.90;17.30;;;;;;;7.41;53.14;98219.72;6785818;29;20611;-79
2021/11/25 07:58:55;;;;;;;31.70;18.60;;;;;;;7.30;53.51;98207.72;6786289;29;20242;-78
2021/11/25 08:02:19;;;;;;;31.37;18.63;;;;;;;7.61;53.58;98213.41;6784500;29;20273;-79
2021/11/25 08:05:41;;;;;;;27.93;18.80;;;;;;;7.89;52.53;98205.28;6786261;29;20206;-82
2021/11/25 08:09:02;;;;;;;28.67;17.37;;;;;;;7.83;52.16;98200.72;6788420;29;20241;-82
2021/11/25 08:12:25;;;;;;;31.00;18.43;;;;;;;7.59;53.17;98211.97;6787551;29;20690;-78
2021/11/25 08:15:47;;;;;;;26.80;17.73;;;;;;;7.78;53.23;98209.34;6785338;29;20204;-78
2021/11/25 08:19:09;;;;;;;31.13;19.00;;;;;;;7.81;52.38;98197.38;6785163;29;20577;-78
2021/11/25 08:22:30;;;;;;;29.87;18.13;;;;;;;7.96;52.61;98203.44;6783366;29;20228;-78
2021/11/25 08:25:52;;;;;;;31.03;18.83;;;;;;;7.96;52.27;98158.59;6782729;29;20227;-79
2021/11/25 08:29:15;;;;;;;33.10;20.40;;;;;;;7.98;52.14;98190.63;6786164;29;20232;-77
2021/11/25 08:32:37;;;;;;;33.37;19.87;;;;;;;8.01;52.81;98187.53;6786796;29;20248;-82
2021/11/25 08:35:58;;;;;;;32.77;18.73;;;;;;;7.84;53.26;98165.59;6783019;29;20659;-78
2021/11/25 08:39:20;;;;;;;32.60;21.03;;;;;;;8.20;51.45;98187.59;6783749;29;20196;-78
2021/11/25 08:42:42;;;;;;;29.80;18.73;;;;;;;6.99;53.22;98187.75;6783201;29;20232;-78
2021/11/25 08:46:05;;;;;;;31.33;18.50;;;;;;;7.20;54.15;98199.22;6784048;29;20207;-78
2021/11/25 08:49:28;;;;;;;29.10;18.07;;;;;;;7.38;52.25;98196.81;6784298;29;20722;-77
2021/11/25 08:52:50;;;;;;;28.67;18.70;;;;;;;6.63;54.40;98201.34;6782880;29;20327;-77
2021/11/25 08:56:12;;;;;;;30.23;18.43;;;;;;;7.34;53.22;98190.22;6790687;29;20214;-78
2021/11/25 08:59:33;;;;;;;29.30;17.73;;;;;;;7.70;52.27;98165.78;6768038;29;20202;-82
2021/11/25 09:02:57;;;;;;;29.53;18.63;;;;;;;7.42;53.38;98187.34;6779485;29;20239;-81
2021/11/25 09:06:19;;;;;;;35.63;19.93;;;;;;;7.48;53.23;98189.22;6785420;29;20221;-79
2021/11/25 09:09:41;;;;;;;32.73;18.83;;;;;;;7.36;53.84;98193.50;6780927;29;20233;-82
2021/11/25 09:13:02;;;;;;;31.50;19.23;;;;;;;7.94;52.40;98187.53;6784208;29;20227;-79
2021/11/25 09:16:24;;;;;;;30.63;19.30;;;;;;;7.30;52.84;98177.41;6782929;29;20236;-79
2021/11/25 09:19:47;;;;;;;29.97;18.47;;;;;;;7.81;52.19;98184.81;6782047;29;20213;-78
2021/11/25 09:23:12;;;;;;;30.47;18.57;;;;;;;8.10;51.75;98187.16;6782298;29;20229;-77
2021/11/25 09:26:34;;;;;;;33.23;19.57;;;;;;;8.26;51.17;98183.25;6781456;29;20252;-78
2021/11/25 09:29:56;;;;;;;31.27;18.70;;;;;;;7.81;51.12;98197.38;6782070;29;20248;-78
2021/11/25 09:33:18;;;;;;;29.00;17.33;;;;;;;7.30;52.97;98201.56;6782382;29;20246;-78
2021/11/25 09:36:41;;;;;;;30.33;18.07;;;;;;;7.48;52.08;98189.22;6807495;29;20235;-78
2021/11/25 09:40:09;;;;;;;29.50;18.27;;;;;;;7.54;51.41;98195.66;6807434;29;20216;-78
2021/11/25 09:43:31;;;;;;;34.33;18.40;;;;;;;7.87;51.77;98196.59;6807791;29;20719;-77
2021/11/25 09:46:54;;;;;;;29.27;17.93;;;;;;;7.69;50.93;98210.56;6807584;29;20223;-77
2021/11/25 09:50:16;;;;;;;27.30;18.00;;;;;;;7.50;52.48;98214.03;6802661;29;20635;-78
2021/11/25 09:53:39;;;;;;;29.87;18.23;;;;;;;8.06;51.36;98211.91;6785368;29;20216;-78
2021/11/25 09:57:00;;;;;;;28.90;17.47;;;;;;;7.64;51.71;98202.31;6774188;29;20212;-77
2021/11/25 10:00:24;;;;;;;28.50;17.77;;;;;;;7.91;51.33;98189.78;6781926;29;20259;-78
2021/11/25 10:03:49;;;;;;;29.37;18.20;;;;;;;8.34;50.28;98201.84;6781903;29;20316;-78
2021/11/25 10:07:11;;;;;;;29.50;17.90;;;;;;;8.39;50.12;98210.97;6781038;29;20208;-78
2021/11/25 10:10:34;;;;;;;28.80;18.43;;;;;;;8.61;50.40;98190.91;6784667;29;20237;-78
2021/11/25 10:13:58;;;;;;;28.67;18.70;;;;;;;8.54;49.72;98202.69;6782082;29;20239;-78
2021/11/25 10:17:47;;;;;;;28.23;17.90;;;;;;;8.67;49.36;98195.44;6786091;29;20215;-80
2021/11/25 10:21:12;;;;;;;28.07;16.43;;;;;;;9.13;48.27;98172.84;6785861;29;20617;-79
2021/11/25 10:24:34;;;;;;;25.37;16.47;;;;;;;9.07;47.82;98179.06;6780971;29;20196;-78
2021/11/25 10:27:58;;;;;;;27.23;17.53;;;;;;;8.96;48.77;98186.13;6786106;29;20211;-78
2021/11/25 12:09:34;;;;;;;27.13;17.53;;;;;;;9.35;48.52;98103.44;6804339;29;20228;-89
2021/11/25 12:22:29;;;;;;;27.50;17.80;;;;;;;8.38;49.12;98095.69;6809424;29;20235;-89
2021/11/25 12:25:57;;;;;;;27.67;16.87;;;;;;;8.78;48.21;98103.44;6805191;29;20240;-87
2021/11/25 12:29:38;;;;;;;27.27;17.50;;;;;;;8.67;48.38;98093.34;6807501;29;20212;-87
2021/11/25 12:33:37;;;;;;;29.23;17.47;;;;;;;8.12;48.96;98087.59;6811378;29;20229;-90
2021/11/25 12:36:59;;;;;;;30.00;17.80;;;;;;;8.22;50.02;98078.13;6808174;29;20210;-87
2021/11/25 12:40:50;;;;;;;;;;;;;;;;;;;;;
2021/11/25 12:44:14;;;;;;;28.60;18.37;;;;;;;7.58;49.96;98019.88;6801589;29;20205;-84
2021/11/25 12:47:36;;;;;;;30.63;18.80;;;;;;;8.57;49.47;98084.06;6801632;29;20258;-85
2021/11/25 12:51:48;;;;;;;25.73;16.80;;;;;;;7.89;50.09;98036.22;6800867;29;20237;-84
2021/11/25 13:31:11;;;;;;;26.83;18.30;;;;;;;7.88;49.90;97995.13;6316685;31;20295;-87
2021/11/25 13:34:35;;;;;;;29.73;18.20;;;;;;;7.92;50.67;98047.34;6456263;30;20212;-87
2021/11/25 13:37:59;;;;;;;31.63;18.47;;;;;;;8.53;49.92;98067.53;6533398;30;20720;-88
2021/11/25 13:41:22;;;;;;;28.23;17.70;;;;;;;8.25;50.33;98079.59;6590689;29;20242;-87
2021/11/25 13:44:46;;;;;;;30.23;17.73;;;;;;;7.86;51.31;98077.69;6604862;29;20240;-85
2021/11/25 13:48:08;;;;;;;26.57;17.37;;;;;;;7.88;51.49;98058.69;6631138;29;20221;-86
2021/11/25 13:51:31;;;;;;;31.07;19.20;;;;;;;8.04;50.75;98080.59;6700778;29;20612;-86
2021/11/25 13:54:53;;;;;;;32.10;17.53;;;;;;;7.31;52.12;98071.81;6700252;29;20222;-86
2021/11/25 13:58:15;;;;;;;29.97;19.27;;;;;;;7.75;51.09;98061.38;6743607;29;20300;-86
2021/11/25 14:05:21;;;;;;;31.23;18.03;;;;;;;8.55;49.27;98076.22;6758273;29;20219;-84
2021/11/25 14:08:47;;;;;;;29.53;18.30;;;;;;;8.01;50.58;98069.44;6801816;29;20213;-86
2021/11/25 14:12:15;;;;;;;31.10;19.13;;;;;;;7.68;51.01;98068.59;6802414;29;20280;-84
2021/11/25 14:15:43;;;;;;;31.27;19.33;;;;;;;8.30;50.65;98063.69;6794395;29;20215;-85
2021/11/25 14:19:16;;;;;;;31.80;19.90;;;;;;;7.98;51.21;98075.22;6799408;29;20209;-86
2021/11/25 14:22:38;;;;;;;31.70;20.57;;;;;;;8.09;50.32;98047.75;6811890;29;20234;-86
2021/11/25 14:26:32;;;;;;;29.73;19.13;;;;;;;7.99;51.44;98084.91;6813926;29;20205;-85
2021/11/25 14:30:50;;;;;;;33.80;20.27;;;;;;;8.28;51.06;98082.69;6819073;29;20271;-86
2021/11/25 14:34:16;;;;;;;32.30;19.17;;;;;;;7.57;51.90;98040.53;6771366;29;20300;-86
2021/11/25 14:37:43;;;;;;;33.23;19.50;;;;;;;7.94;50.32;98015.75;6806852;29;20270;-85
2021/11/25 14:41:52;;;;;;;;;;;;;;;;;;;;;
2021/11/25 14:45:41;;;;;;;30.60;18.20;;;;;;;7.75;50.65;98091.72;6793707;29;20700;-89
2021/11/25 14:58:20;;;;;;;33.60;21.03;;;;;;;7.99;51.05;98101.84;6732440;29;20211;-85
2021/11/25 15:01:45;;;;;;;31.30;20.47;;;;;;;7.64;52.00;98095.00;6787296;29;20262;-85
2021/11/25 15:05:34;;;;;;;30.43;19.43;;;;;;;7.99;51.06;98109.91;6782648;29;20216;-85
2021/11/25 15:09:02;;;;;;;34.17;19.90;;;;;;;7.94;50.83;98053.31;6809537;29;20562;-87
2021/11/25 15:12:24;;;;;;;33.33;20.53;;;;;;;7.81;51.81;98107.00;6816193;29;20331;-85
2021/11/25 15:15:50;;;;;;;31.03;20.50;;;;;;;7.54;51.35;98089.19;6808510;29;20206;-86
2021/11/25 15:19:13;;;;;;;33.00;20.33;;;;;;;7.47;51.99;98082.16;6819565;28;20211;-85
2021/11/25 15:22:35;;;;;;;32.93;19.97;;;;;;;7.55;52.26;98123.03;6810841;29;20220;-88
2021/11/25 15:25:57;;;;;;;31.43;19.60;;;;;;;8.08;51.32;98118.59;6810085;29;20211;-87
2021/11/25 15:29:48;;;;;;;32.93;19.73;;;;;;;8.57;51.09;98119.81;6808353;29;20206;-84
2021/11/25 15:33:24;;;;;;;30.83;19.70;;;;;;;8.18;51.86;98071.50;6790211;29;20244;-88
2021/11/25 15:36:47;;;;;;;34.83;21.47;;;;;;;8.26;50.19;98119.63;6806236;29;20267;-86
2021/11/25 15:40:11;;;;;;;35.27;22.93;;;;;;;8.34;49.60;98132.03;6793564;29;20229;-88
2021/11/25 15:43:33;;;;;;;35.80;22.30;;;;;;;7.32;50.48;98039.44;6805980;29;20308;-87
2021/11/25 15:46:55;;;;;;;36.37;21.10;;;;;;;8.05;50.60;98138.59;6806037;29;20271;-86
2021/11/25 15:50:17;;;;;;;34.70;21.97;;;;;;;7.99;50.69;98139.44;6808135;29;20247;-86
2021/11/25 15:53:40;;;;;;;35.03;21.40;;;;;;;7.95;50.81;98143.53;6808147;29;20244;-87
2021/11/25 15:57:22;;;;;;;34.63;22.30;;;;;;;8.14;50.55;98140.03;6806204;29;20379;-86
2021/11/25 16:00:47;;;;;;;33.57;21.10;;;;;;;7.11;52.24;98100.41;6807981;29;20362;-87
2021/11/25 16:04:14;;;;;;;29.47;20.43;;;;;;;7.50;51.26;98120.16;6807781;29;20653;-87
2021/11/25 16:07:36;;;;;;;33.43;21.40;;;;;;;7.89;51.41;98143.56;6805525;29;20207;-86
2021/11/25 16:11:12;;;;;;;;;;;;;;;;;;;;;
2021/11/25 16:14:42;;;;;;;36.83;22.63;;;;;;;7.88;51.00;98147.25;6806071;29;20220;-89
2021/11/25 16:21:44;;;;;;;31.53;20.87;;;;;;;8.12;50.73;98152.84;6775562;29;20240;-86
2021/11/25 16:25:11;;;;;;;32.20;21.57;;;;;;;8.10;50.53;98151.41;6800867;29;20213;-84
2021/11/25 16:28:43;;;;;;;30.93;20.60;;;;;;;8.00;50.64;98140.25;6804628;29;20218;-85
2021/11/25 16:32:05;;;;;;;35.53;22.00;;;;;;;8.23;50.12;98138.84;6804190;23;20257;-79
2021/11/25 16:35:27;;;;;;;34.23;22.70;;;;;;;8.26;50.90;98137.63;6770223;29;20217;-79
2021/11/25 16:38:49;;;;;;;34.67;22.60;;;;;;;7.94;50.90;98127.63;6779115;29;20218;-79
2021/11/25 16:42:11;;;;;;;36.83;21.67;;;;;;;7.84;51.12;98136.09;6782376;29;20579;-78
2021/11/25 16:45:34;;;;;;;33.93;22.03;;;;;;;8.11;50.25;98143.16;6775371;29;20693;-82
2021/11/25 16:48:56;;;;;;;35.97;23.73;;;;;;;8.06;50.68;98145.63;6769070;29;20211;-79
2021/11/25 16:52:18;;;;;;;36.03;22.63;;;;;;;7.78;51.23;98153.00;6786723;29;20229;-78
2021/11/25 16:55:41;;;;;;;37.10;22.53;;;;;;;7.96;50.81;98166.66;6775832;29;20295;-78
2021/11/25 16:59:03;;;;;;;41.77;23.97;;;;;;;7.84;50.62;98162.94;6756401;29;20646;-78
2021/11/25 17:02:26;;;;;;;72.07;31.57;;;;;;;7.85;51.47;98164.56;6756162;29;20232;-78
2021/11/25 17:05:48;;;;;;;94.90;36.03;;;;;;;7.97;51.22;98162.97;6770663;29;20587;-78
2021/11/25 17:09:10;;;;;;;86.27;38.47;;;;;;;8.10;50.40;98164.81;6756876;29;20229;-79
2021/11/25 17:12:32;;;;;;;35.07;22.60;;;;;;;7.54;51.88;98142.84;6760232;29;20776;-80
2021/11/25 17:15:53;;;;;;;40.37;26.13;;;;;;;7.72;51.44;98150.31;6765846;29;20213;-80
2021/11/25 17:19:16;;;;;;;40.87;24.23;;;;;;;7.61;51.86;98156.28;6785292;29;20569;-84
2021/11/25 17:22:39;;;;;;;35.63;23.53;;;;;;;7.41;52.09;98163.41;6780761;29;20709;-79
2021/11/25 17:26:01;;;;;;;38.07;23.03;;;;;;;7.67;51.76;98174.25;6780131;29;20209;-78
2021/11/25 17:29:22;;;;;;;44.83;25.13;;;;;;;6.64;53.70;98173.53;6777042;29;20216;-81
2021/11/25 17:32:44;;;;;;;37.43;23.40;;;;;;;7.47;52.53;98174.19;6757437;29;20252;-78
2021/11/25 17:36:07;;;;;;;40.43;24.27;;;;;;;7.46;52.23;98183.25;6774722;29;20207;-79
2021/11/25 17:39:29;;;;;;;44.73;26.07;;;;;;;7.70;51.80;98193.44;6773342;29;20213;-79
2021/11/25 17:42:54;;;;;;;42.77;24.97;;;;;;;7.66;51.92;98192.19;6781895;29;20236;-78
2021/11/25 17:46:15;;;;;;;40.93;24.73;;;;;;;7.46;52.51;98193.13;6779717;29;20218;-77
2021/11/25 17:49:37;;;;;;;36.97;23.40;;;;;;;6.90;53.23;98189.75;6778187;29;20236;-78
2021/11/25 17:53:00;;;;;;;36.27;23.60;;;;;;;6.99;53.08;98183.22;6756461;29;20236;-77
2021/11/25 17:56:22;;;;;;;38.73;24.27;;;;;;;7.14;53.22;98194.63;6754276;29;20231;-77
2021/11/25 17:59:43;;;;;;;39.07;24.03;;;;;;;6.78;53.13;98199.38;6756924;29;20221;-77
2021/11/25 18:03:05;;;;;;;41.43;23.50;;;;;;;6.67;53.67;98199.91;6781085;29;20236;-77
2021/11/25 18:06:27;;;;;;;34.63;20.63;;;;;;;6.25;54.50;98199.16;6775365;29;20215;-80
2021/11/25 18:09:50;;;;;;;36.97;23.07;;;;;;;6.47;54.86;98211.50;6789616;29;20269;-78
2021/11/25 18:13:12;;;;;;;37.70;22.97;;;;;;;6.33;55.31;98199.03;6792504;29;20227;-78
2021/11/25 18:16:34;;;;;;;39.90;22.97;;;;;;;6.77;54.51;98199.59;6805501;29;20219;-78
2021/11/25 18:19:56;;;;;;;40.57;23.33;;;;;;;6.68;54.60;98198.06;6781478;29;20690;-77
2021/11/25 18:23:18;;;;;;;40.93;22.83;;;;;;;7.11;53.15;98203.09;6776772;29;20232;-77
2021/11/25 18:26:41;;;;;;;39.27;23.47;;;;;;;6.72;53.89;98196.66;6762987;29;20225;-78
2021/11/25 18:30:04;;;;;;;39.03;24.27;;;;;;;6.73;54.10;98203.66;6765560;29;20668;-77
2021/11/25 18:33:25;;;;;;;39.00;23.83;;;;;;;6.62;53.99;98199.69;6761179;29;20237;-77
2021/11/25 18:36:47;;;;;;;40.87;24.03;;;;;;;7.06;53.25;98199.34;6756661;29;20217;-78
2021/11/25 18:40:10;;;;;;;39.73;25.00;;;;;;;7.35;52.69;98194.56;6758514;29;20223;-76
2021/11/25 18:43:33;;;;;;;41.07;24.10;;;;;;;7.33;52.64;98185.03;6784194;29;20745;-78
2021/11/25 18:46:55;;;;;;;41.67;25.83;;;;;;;7.19;52.30;98188.72;6761794;29;20280;-81
2021/11/25 18:50:17;;;;;;;39.97;25.67;;;;;;;7.31;52.18;98193.28;6776797;29;20409;-77
2021/11/25 18:53:38;;;;;;;43.10;25.87;;;;;;;7.02;52.79;98179.34;6784965;29;20215;-78
2021/11/25 18:57:00;;;;;;;38.90;24.37;;;;;;;7.19;52.39;98197.56;6782938;29;20214;-77
2021/11/25 19:00:23;;;;;;;36.83;24.00;;;;;;;7.04;53.15;98194.19;6779295;29;20259;-77
2021/11/25 19:03:45;;;;;;;39.60;24.03;;;;;;;7.11;52.70;98186.16;6783979;29;20209;-78
2021/11/25 19:07:07;;;;;;;35.77;23.60;;;;;;;6.68;53.22;98173.97;6784770;29;20243;-80
2021/11/25 19:10:29;;;;;;;40.83;24.73;;;;;;;6.79;53.36;98179.59;6785876;29;20286;-78
2021/11/25 19:13:51;;;;;;;37.40;23.00;;;;;;;7.06;53.15;98180.56;6785524;29;20219;-77
2021/11/25 19:17:14;;;;;;;42.03;25.23;;;;;;;7.16;52.33;98163.13;6784914;29;20326;-77
2021/11/25 19:20:35;;;;;;;39.00;24.00;;;;;;;7.35;52.67;98185.66;6785977;29;20242;-78
2021/11/25 19:24:00;;;;;;;43.67;25.13;;;;;;;7.34;52.30;98182.19;6789406;29;20204;-77
2021/11/25 19:27:21;;;;;;;39.30;24.20;;;;;;;7.14;52.58;98169.72;6804669;29;20530;-77
2021/11/25 19:30:43;;;;;;;42.60;24.93;;;;;;;7.32;52.44;98183.41;6783816;29;20264;-77
2021/11/25 19:34:06;;;;;;;38.70;23.13;;;;;;;6.89;52.54;98177.41;6783974;29;20308;-77
2021/11/25 19:37:28;;;;;;;38.80;22.63;;;;;;;6.61;54.77;98171.22;6790672;29;20230;-78
2021/11/25 19:40:50;;;;;;;37.30;23.63;;;;;;;7.03;52.87;98138.94;6784074;29;20229;-77
2021/11/25 19:44:12;;;;;;;38.83;24.30;;;;;;;6.76;53.70;98166.59;6783435;29;20673;-76
2021/11/25 19:47:34;;;;;;;39.27;24.23;;;;;;;6.86;52.73;98160.88;6784030;29;20217;-77
2021/11/25 19:50:57;;;;;;;37.37;23.77;;;;;;;6.64;53.58;98167.34;6783310;29;20235;-77
2021/11/25 19:54:19;;;;;;;39.70;23.67;;;;;;;6.10;54.41;98158.25;6783627;29;20222;-78
2021/11/25 19:57:41;;;;;;;38.67;22.97;;;;;;;6.64;53.51;98160.13;6783557;29;20269;-77
2021/11/25 20:01:03;;;;;;;35.93;21.90;;;;;;;6.59;53.73;98162.56;6783644;29;20717;-78
2021/11/25 20:04:25;;;;;;;38.77;22.33;;;;;;;6.55;53.01;98115.78;6783248;29;20218;-78
2021/11/25 20:07:48;;;;;;;39.87;23.83;;;;;;;6.91;52.71;98148.56;6783246;29;20240;-77
2021/11/25 20:11:09;;;;;;;42.27;23.30;;;;;;;6.82;52.84;98141.69;6783891;29;20244;-78
2021/11/25 20:14:32;;;;;;;34.33;21.67;;;;;;;6.53;53.28;98141.09;6766405;29;20480;-77
2021/11/25 20:17:55;;;;;;;36.73;21.80;;;;;;;6.47;53.87;98153.41;6757154;29;20279;-77
2021/11/25 20:21:16;;;;;;;48.30;25.40;;;;;;;6.36;53.68;98148.59;6757037;29;20705;-77
2021/11/25 20:24:40;;;;;;;37.00;22.23;;;;;;;6.40;53.36;98141.00;6756442;29;20210;-77
2021/11/25 20:28:02;;;;;;;36.83;21.23;;;;;;;6.60;53.16;98142.00;6762243;29;20215;-78
2021/11/25 20:31:24;;;;;;;36.37;22.37;;;;;;;6.98;52.66;98144.06;6780376;29;20231;-77
2021/11/25 20:34:47;;;;;;;35.37;21.17;;;;;;;6.55;52.92;98104.25;6756318;29;20584;-77
2021/11/25 20:38:08;;;;;;;35.63;21.30;;;;;;;6.89;52.56;98147.13;6757490;29;20688;-78
2021/11/25 20:41:32;;;;;;;35.87;21.47;;;;;;;6.79;52.40;98152.00;6761909;29;20240;-79
2021/11/25 20:44:53;;;;;;;37.57;22.80;;;;;;;7.13;51.91;98139.38;6782336;29;20224;-78
2021/11/25 20:48:15;;;;;;;36.87;22.00;;;;;;;7.20;51.87;98144.78;6782783;29;20212;-79
2021/11/25 20:51:37;;;;;;;35.70;21.90;;;;;;;6.80;52.48;98140.25;6782043;29;20243;-79
2021/11/25 20:54:59;;;;;;;38.00;21.67;;;;;;;6.95;52.33;98136.41;6781688;29;20216;-79
2021/11/25 20:58:23;;;;;;;37.67;21.10;;;;;;;6.79;52.15;98128.69;6774780;29;20205;-79
2021/11/25 21:01:45;;;;;;;38.37;21.57;;;;;;;6.69;52.28;98119.38;6756379;29;20232;-79
2021/11/25 21:05:08;;;;;;;37.60;21.83;;;;;;;7.15;51.36;98123.94;6776259;29;20216;-79
2021/11/25 21:08:29;;;;;;;40.70;22.60;;;;;;;6.61;52.69;98119.53;6782127;29;20208;-79
2021/11/25 21:11:51;;;;;;;35.30;20.97;;;;;;;6.52;52.77;98108.16;6781930;29;20241;-78
2021/11/25 21:15:15;;;;;;;34.60;20.73;;;;;;;6.65;52.60;98121.63;6781000;29;20215;-79
2021/11/25 21:18:36;;;;;;;39.73;21.00;;;;;;;6.65;52.77;98096.66;6771263;29;20208;-78
2021/11/25 21:21:58;;;;;;;34.73;21.00;;;;;;;7.00;51.70;98117.03;6755779;29;20234;-78
2021/11/25 21:25:25;;;;;;;33.60;20.23;;;;;;;6.73;52.17;98105.38;6756841;29;20212;-78
2021/11/25 21:28:52;;;;;;;35.37;21.60;;;;;;;5.97;53.86;98118.03;6756552;29;20196;-78
2021/11/25 21:32:16;;;;;;;40.77;21.83;;;;;;;6.50;53.16;98110.22;6760628;29;20243;-78
2021/11/25 21:35:37;;;;;;;34.60;20.93;;;;;;;7.03;51.78;98098.75;6756005;29;20676;-78
2021/11/25 21:38:59;;;;;;;37.40;22.43;;;;;;;6.79;52.63;98107.25;6756670;29;20212;-78
2021/11/25 21:42:21;;;;;;;39.30;24.27;;;;;;;6.80;52.68;98097.38;6754585;29;20715;-78
2021/11/25 21:45:43;;;;;;;36.57;21.87;;;;;;;6.66;52.75;98074.25;6766513;29;20220;-83
2021/11/25 21:49:06;;;;;;;38.03;22.67;;;;;;;6.64;52.18;98058.38;6760872;29;20222;-78
2021/11/25 21:52:27;;;;;;;40.47;23.57;;;;;;;7.03;51.87;98100.59;6782675;29;20240;-78
2021/11/25 21:55:49;;;;;;;42.27;22.00;;;;;;;6.42;52.97;98086.25;6782079;29;20211;-79
2021/11/25 21:59:11;;;;;;;37.43;22.33;;;;;;;6.76;52.63;98082.72;6780995;29;20210;-77
